sensor_id;sensor_type;location;lat;lon;timestamp;P1;durP1;ratioP1;P2;durP2;ratioP2
40150;SDS011;25866;52.420;10.640;2023-11-22T00:00:21;4.87;;;2.50;;
40150;SDS011;25866;52.420;10.640;2023-11-22T00:02:47;5.93;;;2.57;;
40150;SDS011;25866;52.420;10.640;2023-11-22T00:05:15;2.73;;;2.10;;
40150;SDS011;25866;52.420;10.640;2023-11-22T00:07:41;3.77;;;2.40;;
40150;SDS011;25866;52.420;10.640;2023-11-22T00:10:07;5.07;;;2.40;;
40150;SDS011;25866;52.420;10.640;2023-11-22T00:12:33;4.03;;;2.50;;
40150;SDS011;25866;52.420;10.640;2023-11-22T00:15:04;5.50;;;2.47;;
40150;SDS011;25866;52.420;10.640;2023-11-22T00:17:31;4.93;;;2.30;;
40150;SDS011;25866;52.420;10.640;2023-11-22T00:19:57;3.83;;;2.60;;
40150;SDS011;25866;52.420;10.640;2023-11-22T00:22:27;2.77;;;2.20;;
40150;SDS011;25866;52.420;10.640;2023-11-22T00:24:53;3.80;;;2.43;;
40150;SDS011;25866;52.420;10.640;2023-11-22T00:27:18;4.23;;;1.90;;
40150;SDS011;25866;52.420;10.640;2023-11-22T00:29:44;3.50;;;2.30;;
40150;SDS011;25866;52.420;10.640;2023-11-22T00:32:11;4.27;;;2.20;;
40150;SDS011;25866;52.420;10.640;2023-11-22T00:34:38;3.57;;;2.30;;
40150;SDS011;25866;52.420;10.640;2023-11-22T00:37:04;6.10;;;2.30;;
40150;SDS011;25866;52.420;10.640;2023-11-22T00:39:30;3.80;;;2.30;;
40150;SDS011;25866;52.420;10.640;2023-11-22T00:41:57;2.93;;;2.17;;
40150;SDS011;25866;52.420;10.640;2023-11-22T00:44:22;3.83;;;2.30;;
40150;SDS011;25866;52.420;10.640;2023-11-22T00:46:48;4.50;;;2.50;;
40150;SDS011;25866;52.420;10.640;2023-11-22T00:49:14;3.70;;;2.23;;
40150;SDS011;25866;52.420;10.640;2023-11-22T00:51:39;4.20;;;2.00;;
40150;SDS011;25866;52.420;10.640;2023-11-22T00:54:05;2.83;;;1.93;;
40150;SDS011;25866;52.420;10.640;2023-11-22T00:56:31;5.83;;;2.10;;
40150;SDS011;25866;52.420;10.640;2023-11-22T00:58:57;3.60;;;2.10;;
40150;SDS011;25866;52.420;10.640;2023-11-22T01:01:25;2.60;;;2.00;;
40150;SDS011;25866;52.420;10.640;2023-11-22T01:03:51;4.60;;;2.33;;
40150;SDS011;25866;52.420;10.640;2023-11-22T01:06:18;3.60;;;2.33;;
40150;SDS011;25866;52.420;10.640;2023-11-22T01:08:43;3.50;;;2.20;;
40150;SDS011;25866;52.420;10.640;2023-11-22T01:11:09;4.80;;;2.37;;
40150;SDS011;25866;52.420;10.640;2023-11-22T01:13:35;2.53;;;1.83;;
40150;SDS011;25866;52.420;10.640;2023-11-22T01:16:12;3.00;;;2.13;;
40150;SDS011;25866;52.420;10.640;2023-11-22T01:18:41;5.07;;;2.20;;
40150;SDS011;25866;52.420;10.640;2023-11-22T01:21:08;5.10;;;2.07;;
40150;SDS011;25866;52.420;10.640;2023-11-22T01:23:33;4.20;;;2.30;;
40150;SDS011;25866;52.420;10.640;2023-11-22T01:26:02;2.90;;;2.27;;
40150;SDS011;25866;52.420;10.640;2023-11-22T01:28:28;4.77;;;2.13;;
40150;SDS011;25866;52.420;10.640;2023-11-22T01:30:54;6.33;;;2.37;;
40150;SDS011;25866;52.420;10.640;2023-11-22T01:33:23;4.47;;;2.40;;
40150;SDS011;25866;52.420;10.640;2023-11-22T01:35:48;4.90;;;2.40;;
40150;SDS011;25866;52.420;10.640;2023-11-22T01:38:17;2.90;;;2.37;;
40150;SDS011;25866;52.420;10.640;2023-11-22T01:40:46;4.47;;;2.20;;
40150;SDS011;25866;52.420;10.640;2023-11-22T01:43:19;6.10;;;2.57;;
40150;SDS011;25866;52.420;10.640;2023-11-22T01:45:46;3.40;;;2.60;;
40150;SDS011;25866;52.420;10.640;2023-11-22T01:48:12;3.73;;;2.47;;
40150;SDS011;25866;52.420;10.640;2023-11-22T01:50:38;5.60;;;2.67;;
40150;SDS011;25866;52.420;10.640;2023-11-22T01:53:05;4.00;;;2.40;;
40150;SDS011;25866;52.420;10.640;2023-11-22T01:55:32;7.13;;;2.57;;
40150;SDS011;25866;52.420;10.640;2023-11-22T01:57:58;5.80;;;2.60;;
40150;SDS011;25866;52.420;10.640;2023-11-22T02:00:24;3.20;;;2.40;;
40150;SDS011;25866;52.420;10.640;2023-11-22T02:02:51;5.37;;;3.20;;
40150;SDS011;25866;52.420;10.640;2023-11-22T02:05:18;3.73;;;2.40;;
40150;SDS011;25866;52.420;10.640;2023-11-22T02:07:44;6.57;;;2.43;;
40150;SDS011;25866;52.420;10.640;2023-11-22T02:10:10;3.23;;;2.50;;
40150;SDS011;25866;52.420;10.640;2023-11-22T02:12:35;6.27;;;2.77;;
40150;SDS011;25866;52.420;10.640;2023-11-22T02:15:01;3.57;;;2.40;;
40150;SDS011;25866;52.420;10.640;2023-11-22T02:17:28;3.73;;;2.67;;
40150;SDS011;25866;52.420;10.640;2023-11-22T02:19:54;6.00;;;2.43;;
40150;SDS011;25866;52.420;10.640;2023-11-22T02:22:20;4.00;;;2.83;;
40150;SDS011;25866;52.420;10.640;2023-11-22T02:24:46;4.00;;;2.40;;
40150;SDS011;25866;52.420;10.640;2023-11-22T02:27:12;4.80;;;2.60;;
40150;SDS011;25866;52.420;10.640;2023-11-22T02:29:38;3.83;;;2.53;;
40150;SDS011;25866;52.420;10.640;2023-11-22T02:32:05;3.67;;;2.37;;
40150;SDS011;25866;52.420;10.640;2023-11-22T02:34:31;5.30;;;2.60;;
40150;SDS011;25866;52.420;10.640;2023-11-22T02:36:57;3.43;;;2.07;;
40150;SDS011;25866;52.420;10.640;2023-11-22T02:39:24;3.57;;;2.33;;
40150;SDS011;25866;52.420;10.640;2023-11-22T02:42:06;4.03;;;2.43;;
40150;SDS011;25866;52.420;10.640;2023-11-22T02:44:34;4.77;;;2.67;;
40150;SDS011;25866;52.420;10.640;2023-11-22T02:46:59;3.20;;;2.13;;
40150;SDS011;25866;52.420;10.640;2023-11-22T02:49:25;4.37;;;2.77;;
40150;SDS011;25866;52.420;10.640;2023-11-22T02:51:51;6.03;;;2.50;;
40150;SDS011;25866;52.420;10.640;2023-11-22T02:54:16;3.97;;;2.40;;
40150;SDS011;25866;52.420;10.640;2023-11-22T02:56:42;4.30;;;2.50;;
40150;SDS011;25866;52.420;10.640;2023-11-22T02:59:08;4.23;;;2.37;;
40150;SDS011;25866;52.420;10.640;2023-11-22T03:01:38;2.97;;;2.27;;
40150;SDS011;25866;52.420;10.640;2023-11-22T03:04:08;2.90;;;2.37;;
40150;SDS011;25866;52.420;10.640;2023-11-22T03:06:34;4.00;;;2.40;;
40150;SDS011;25866;52.420;10.640;2023-11-22T03:09:01;2.87;;;2.10;;
40150;SDS011;25866;52.420;10.640;2023-11-22T03:11:27;3.23;;;2.20;;
40150;SDS011;25866;52.420;10.640;2023-11-22T03:13:52;3.93;;;2.33;;
40150;SDS011;25866;52.420;10.640;2023-11-22T03:16:18;7.27;;;2.70;;
40150;SDS011;25866;52.420;10.640;2023-11-22T03:18:44;6.60;;;3.20;;
40150;SDS011;25866;52.420;10.640;2023-11-22T03:21:10;5.77;;;2.47;;
40150;SDS011;25866;52.420;10.640;2023-11-22T03:23:35;5.37;;;2.33;;
40150;SDS011;25866;52.420;10.640;2023-11-22T03:26:01;6.77;;;2.50;;
40150;SDS011;25866;52.420;10.640;2023-11-22T03:28:28;4.73;;;2.07;;
40150;SDS011;25866;52.420;10.640;2023-11-22T03:30:56;7.97;;;2.67;;
40150;SDS011;25866;52.420;10.640;2023-11-22T03:33:21;3.70;;;2.00;;
40150;SDS011;25866;52.420;10.640;2023-11-22T03:35:47;5.07;;;2.60;;
40150;SDS011;25866;52.420;10.640;2023-11-22T03:38:13;3.77;;;2.53;;
40150;SDS011;25866;52.420;10.640;2023-11-22T03:40:39;2.90;;;2.07;;
40150;SDS011;25866;52.420;10.640;2023-11-22T03:43:05;3.20;;;2.23;;
40150;SDS011;25866;52.420;10.640;2023-11-22T03:45:33;3.53;;;2.47;;
40150;SDS011;25866;52.420;10.640;2023-11-22T03:47:58;3.33;;;2.30;;
40150;SDS011;25866;52.420;10.640;2023-11-22T03:50:24;4.23;;;2.40;;
40150;SDS011;25866;52.420;10.640;2023-11-22T03:52:50;4.00;;;2.63;;
40150;SDS011;25866;52.420;10.640;2023-11-22T03:55:16;6.07;;;2.60;;
40150;SDS011;25866;52.420;10.640;2023-11-22T03:57:42;5.33;;;2.60;;
40150;SDS011;25866;52.420;10.640;2023-11-22T04:00:09;4.33;;;2.63;;
40150;SDS011;25866;52.420;10.640;2023-11-22T04:02:35;3.87;;;2.53;;
40150;SDS011;25866;52.420;10.640;2023-11-22T04:05:02;5.57;;;2.50;;
40150;SDS011;25866;52.420;10.640;2023-11-22T04:07:28;3.57;;;2.60;;
40150;SDS011;25866;52.420;10.640;2023-11-22T04:09:54;2.73;;;2.33;;
40150;SDS011;25866;52.420;10.640;2023-11-22T04:12:21;3.63;;;2.40;;
40150;SDS011;25866;52.420;10.640;2023-11-22T04:14:47;3.60;;;2.70;;
40150;SDS011;25866;52.420;10.640;2023-11-22T04:17:13;5.10;;;2.80;;
40150;SDS011;25866;52.420;10.640;2023-11-22T04:19:38;3.00;;;1.97;;
40150;SDS011;25866;52.420;10.640;2023-11-22T04:22:04;3.87;;;2.43;;
40150;SDS011;25866;52.420;10.640;2023-11-22T04:24:30;2.90;;;2.17;;
40150;SDS011;25866;52.420;10.640;2023-11-22T04:26:56;4.07;;;2.40;;
40150;SDS011;25866;52.420;10.640;2023-11-22T04:29:22;4.77;;;2.00;;
40150;SDS011;25866;52.420;10.640;2023-11-22T04:31:48;4.13;;;2.23;;
40150;SDS011;25866;52.420;10.640;2023-11-22T04:34:13;2.60;;;2.00;;
40150;SDS011;25866;52.420;10.640;2023-11-22T04:36:39;7.17;;;2.50;;
40150;SDS011;25866;52.420;10.640;2023-11-22T04:39:05;4.30;;;2.20;;
40150;SDS011;25866;52.420;10.640;2023-11-22T04:41:32;3.37;;;2.20;;
40150;SDS011;25866;52.420;10.640;2023-11-22T04:43:59;3.53;;;2.23;;
40150;SDS011;25866;52.420;10.640;2023-11-22T04:46:25;3.60;;;2.33;;
40150;SDS011;25866;52.420;10.640;2023-11-22T04:48:51;6.43;;;2.83;;
40150;SDS011;25866;52.420;10.640;2023-11-22T04:51:17;6.57;;;2.00;;
40150;SDS011;25866;52.420;10.640;2023-11-22T04:53:42;3.57;;;2.37;;
40150;SDS011;25866;52.420;10.640;2023-11-22T04:56:09;2.80;;;2.10;;
40150;SDS011;25866;52.420;10.640;2023-11-22T04:58:35;5.00;;;2.50;;
40150;SDS011;25866;52.420;10.640;2023-11-22T05:01:01;3.67;;;2.40;;
40150;SDS011;25866;52.420;10.640;2023-11-22T05:03:27;4.93;;;2.17;;
40150;SDS011;25866;52.420;10.640;2023-11-22T05:05:53;3.47;;;2.43;;
40150;SDS011;25866;52.420;10.640;2023-11-22T05:08:18;2.93;;;1.80;;
40150;SDS011;25866;52.420;10.640;2023-11-22T05:10:44;3.53;;;2.00;;
40150;SDS011;25866;52.420;10.640;2023-11-22T05:13:10;2.50;;;2.00;;
40150;SDS011;25866;52.420;10.640;2023-11-22T05:15:35;3.10;;;2.00;;
40150;SDS011;25866;52.420;10.640;2023-11-22T05:18:02;3.03;;;1.80;;
40150;SDS011;25866;52.420;10.640;2023-11-22T05:20:27;4.30;;;1.80;;
40150;SDS011;25866;52.420;10.640;2023-11-22T05:22:53;3.77;;;2.20;;
40150;SDS011;25866;52.420;10.640;2023-11-22T05:25:19;3.40;;;1.90;;
40150;SDS011;25866;52.420;10.640;2023-11-22T05:27:45;3.77;;;1.87;;
40150;SDS011;25866;52.420;10.640;2023-11-22T05:30:10;2.47;;;1.93;;
40150;SDS011;25866;52.420;10.640;2023-11-22T05:32:36;2.37;;;1.90;;
40150;SDS011;25866;52.420;10.640;2023-11-22T05:35:02;2.87;;;2.10;;
40150;SDS011;25866;52.420;10.640;2023-11-22T05:37:31;3.27;;;2.03;;
40150;SDS011;25866;52.420;10.640;2023-11-22T05:39:57;4.40;;;2.03;;
40150;SDS011;25866;52.420;10.640;2023-11-22T05:42:22;3.77;;;2.20;;
40150;SDS011;25866;52.420;10.640;2023-11-22T05:44:50;2.60;;;2.10;;
40150;SDS011;25866;52.420;10.640;2023-11-22T05:47:15;2.70;;;1.60;;
40150;SDS011;25866;52.420;10.640;2023-11-22T05:49:43;4.50;;;1.70;;
40150;SDS011;25866;52.420;10.640;2023-11-22T05:52:09;3.87;;;2.00;;
40150;SDS011;25866;52.420;10.640;2023-11-22T05:54:34;5.03;;;2.00;;
40150;SDS011;25866;52.420;10.640;2023-11-22T05:57:01;2.50;;;1.67;;
40150;SDS011;25866;52.420;10.640;2023-11-22T05:59:27;2.47;;;1.80;;
40150;SDS011;25866;52.420;10.640;2023-11-22T06:01:53;2.50;;;1.90;;
40150;SDS011;25866;52.420;10.640;2023-11-22T06:04:19;2.37;;;1.97;;
40150;SDS011;25866;52.420;10.640;2023-11-22T06:06:44;3.23;;;1.90;;
40150;SDS011;25866;52.420;10.640;2023-11-22T06:09:11;2.80;;;1.87;;
40150;SDS011;25866;52.420;10.640;2023-11-22T06:11:39;2.90;;;2.10;;
40150;SDS011;25866;52.420;10.640;2023-11-22T06:14:05;3.57;;;1.80;;
40150;SDS011;25866;52.420;10.640;2023-11-22T06:16:31;4.43;;;2.00;;
40150;SDS011;25866;52.420;10.640;2023-11-22T06:18:56;1.90;;;1.53;;
40150;SDS011;25866;52.420;10.640;2023-11-22T06:21:22;3.00;;;2.00;;
40150;SDS011;25866;52.420;10.640;2023-11-22T06:23:52;4.03;;;2.17;;
40150;SDS011;25866;52.420;10.640;2023-11-22T06:26:20;4.90;;;1.80;;
40150;SDS011;25866;52.420;10.640;2023-11-22T06:28:46;3.13;;;1.70;;
40150;SDS011;25866;52.420;10.640;2023-11-22T06:31:14;3.10;;;1.90;;
40150;SDS011;25866;52.420;10.640;2023-11-22T06:33:40;3.63;;;2.17;;
40150;SDS011;25866;52.420;10.640;2023-11-22T06:36:05;4.00;;;1.80;;
40150;SDS011;25866;52.420;10.640;2023-11-22T06:38:31;2.07;;;1.57;;
40150;SDS011;25866;52.420;10.640;2023-11-22T06:40:57;4.70;;;1.80;;
40150;SDS011;25866;52.420;10.640;2023-11-22T06:43:23;3.23;;;2.10;;
40150;SDS011;25866;52.420;10.640;2023-11-22T06:45:49;5.23;;;1.80;;
40150;SDS011;25866;52.420;10.640;2023-11-22T06:48:15;6.50;;;1.90;;
40150;SDS011;25866;52.420;10.640;2023-11-22T06:50:41;3.17;;;2.00;;
40150;SDS011;25866;52.420;10.640;2023-11-22T06:53:07;2.67;;;1.90;;
40150;SDS011;25866;52.420;10.640;2023-11-22T06:55:33;4.00;;;2.60;;
40150;SDS011;25866;52.420;10.640;2023-11-22T06:57:59;2.70;;;2.23;;
40150;SDS011;25866;52.420;10.640;2023-11-22T07:00:24;3.73;;;2.50;;
40150;SDS011;25866;52.420;10.640;2023-11-22T07:02:52;3.37;;;2.50;;
40150;SDS011;25866;52.420;10.640;2023-11-22T07:05:18;3.33;;;2.23;;
40150;SDS011;25866;52.420;10.640;2023-11-22T07:07:44;4.53;;;2.33;;
40150;SDS011;25866;52.420;10.640;2023-11-22T07:10:09;7.80;;;2.53;;
40150;SDS011;25866;52.420;10.640;2023-11-22T07:12:36;4.70;;;2.57;;
40150;SDS011;25866;52.420;10.640;2023-11-22T07:15:03;4.23;;;2.20;;
40150;SDS011;25866;52.420;10.640;2023-11-22T07:17:30;5.93;;;2.43;;
40150;SDS011;25866;52.420;10.640;2023-11-22T07:19:58;4.93;;;2.57;;
40150;SDS011;25866;52.420;10.640;2023-11-22T07:22:25;4.27;;;2.60;;
40150;SDS011;25866;52.420;10.640;2023-11-22T07:24:51;3.37;;;2.37;;
40150;SDS011;25866;52.420;10.640;2023-11-22T07:27:19;5.07;;;2.77;;
40150;SDS011;25866;52.420;10.640;2023-11-22T07:29:45;4.33;;;2.93;;
40150;SDS011;25866;52.420;10.640;2023-11-22T07:32:11;3.57;;;2.40;;
40150;SDS011;25866;52.420;10.640;2023-11-22T07:34:38;3.97;;;2.63;;
40150;SDS011;25866;52.420;10.640;2023-11-22T07:37:08;7.73;;;2.07;;
40150;SDS011;25866;52.420;10.640;2023-11-22T07:39:34;4.50;;;2.47;;
40150;SDS011;25866;52.420;10.640;2023-11-22T07:42:01;4.87;;;2.43;;
40150;SDS011;25866;52.420;10.640;2023-11-22T07:44:28;2.93;;;2.10;;
40150;SDS011;25866;52.420;10.640;2023-11-22T07:46:57;2.70;;;2.23;;
40150;SDS011;25866;52.420;10.640;2023-11-22T07:49:24;5.03;;;2.47;;
40150;SDS011;25866;52.420;10.640;2023-11-22T07:51:50;3.50;;;2.30;;
40150;SDS011;25866;52.420;10.640;2023-11-22T07:54:18;5.30;;;2.10;;
40150;SDS011;25866;52.420;10.640;2023-11-22T07:56:50;2.87;;;2.20;;
40150;SDS011;25866;52.420;10.640;2023-11-22T07:59:19;4.53;;;2.57;;
40150;SDS011;25866;52.420;10.640;2023-11-22T08:01:45;3.67;;;2.73;;
40150;SDS011;25866;52.420;10.640;2023-11-22T08:04:14;3.77;;;2.60;;
40150;SDS011;25866;52.420;10.640;2023-11-22T08:06:43;6.43;;;3.30;;
40150;SDS011;25866;52.420;10.640;2023-11-22T08:09:10;5.47;;;3.40;;
40150;SDS011;25866;52.420;10.640;2023-11-22T08:11:36;5.23;;;3.43;;
40150;SDS011;25866;52.420;10.640;2023-11-22T08:14:02;6.63;;;3.53;;
40150;SDS011;25866;52.420;10.640;2023-11-22T08:16:28;5.27;;;3.40;;
40150;SDS011;25866;52.420;10.640;2023-11-22T08:18:57;6.20;;;3.67;;
40150;SDS011;25866;52.420;10.640;2023-11-22T08:21:23;5.20;;;3.27;;
40150;SDS011;25866;52.420;10.640;2023-11-22T08:23:49;5.20;;;2.93;;
40150;SDS011;25866;52.420;10.640;2023-11-22T08:26:15;4.93;;;3.53;;
40150;SDS011;25866;52.420;10.640;2023-11-22T08:28:41;7.13;;;3.70;;
40150;SDS011;25866;52.420;10.640;2023-11-22T08:31:07;6.47;;;4.90;;
40150;SDS011;25866;52.420;10.640;2023-11-22T08:33:34;6.17;;;4.07;;
40150;SDS011;25866;52.420;10.640;2023-11-22T08:36:01;5.93;;;3.97;;
40150;SDS011;25866;52.420;10.640;2023-11-22T08:38:29;5.17;;;3.70;;
40150;SDS011;25866;52.420;10.640;2023-11-22T08:41:05;5.37;;;3.50;;
40150;SDS011;25866;52.420;10.640;2023-11-22T08:43:32;5.43;;;3.67;;
40150;SDS011;25866;52.420;10.640;2023-11-22T08:45:58;4.57;;;3.80;;
40150;SDS011;25866;52.420;10.640;2023-11-22T08:48:24;7.23;;;3.70;;
40150;SDS011;25866;52.420;10.640;2023-11-22T08:50:51;6.73;;;4.00;;
40150;SDS011;25866;52.420;10.640;2023-11-22T08:53:18;6.93;;;4.17;;
40150;SDS011;25866;52.420;10.640;2023-11-22T08:55:45;6.93;;;4.10;;
40150;SDS011;25866;52.420;10.640;2023-11-22T08:58:12;8.17;;;4.60;;
40150;SDS011;25866;52.420;10.640;2023-11-22T09:00:38;6.63;;;4.57;;
40150;SDS011;25866;52.420;10.640;2023-11-22T09:03:04;8.53;;;5.87;;
40150;SDS011;25866;52.420;10.640;2023-11-22T09:05:30;7.83;;;4.87;;
40150;SDS011;25866;52.420;10.640;2023-11-22T09:07:55;8.83;;;6.20;;
40150;SDS011;25866;52.420;10.640;2023-11-22T09:10:23;9.17;;;5.53;;
40150;SDS011;25866;52.420;10.640;2023-11-22T09:12:48;8.40;;;6.07;;
40150;SDS011;25866;52.420;10.640;2023-11-22T09:15:14;7.10;;;5.03;;
40150;SDS011;25866;52.420;10.640;2023-11-22T09:17:43;8.00;;;4.57;;
40150;SDS011;25866;52.420;10.640;2023-11-22T09:20:09;6.60;;;4.33;;
40150;SDS011;25866;52.420;10.640;2023-11-22T09:22:42;8.83;;;5.10;;
40150;SDS011;25866;52.420;10.640;2023-11-22T09:25:25;7.33;;;4.57;;
40150;SDS011;25866;52.420;10.640;2023-11-22T09:27:56;7.80;;;4.83;;
40150;SDS011;25866;52.420;10.640;2023-11-22T09:30:26;7.70;;;4.50;;
40150;SDS011;25866;52.420;10.640;2023-11-22T09:35:39;6.20;;;4.30;;
40150;SDS011;25866;52.420;10.640;2023-11-22T09:38:07;6.53;;;4.57;;
40150;SDS011;25866;52.420;10.640;2023-11-22T09:40:36;8.40;;;4.87;;
40150;SDS011;25866;52.420;10.640;2023-11-22T09:43:11;9.17;;;5.23;;
40150;SDS011;25866;52.420;10.640;2023-11-22T09:45:42;7.43;;;4.63;;
40150;SDS011;25866;52.420;10.640;2023-11-22T09:48:19;8.23;;;4.97;;
40150;SDS011;25866;52.420;10.640;2023-11-22T09:50:56;6.67;;;4.70;;
40150;SDS011;25866;52.420;10.640;2023-11-22T09:53:31;8.90;;;5.00;;
40150;SDS011;25866;52.420;10.640;2023-11-22T09:56:02;7.77;;;4.73;;
40150;SDS011;25866;52.420;10.640;2023-11-22T09:58:33;7.07;;;4.70;;
40150;SDS011;25866;52.420;10.640;2023-11-22T10:01:02;7.87;;;5.03;;
40150;SDS011;25866;52.420;10.640;2023-11-22T10:03:29;7.43;;;5.00;;
40150;SDS011;25866;52.420;10.640;2023-11-22T10:05:58;7.70;;;4.80;;
40150;SDS011;25866;52.420;10.640;2023-11-22T10:08:28;11.33;;;5.10;;
40150;SDS011;25866;52.420;10.640;2023-11-22T10:10:56;7.73;;;5.30;;
40150;SDS011;25866;52.420;10.640;2023-11-22T10:13:22;9.63;;;5.30;;
40150;SDS011;25866;52.420;10.640;2023-11-22T10:15:49;9.40;;;4.97;;
40150;SDS011;25866;52.420;10.640;2023-11-22T10:18:15;9.60;;;4.90;;
40150;SDS011;25866;52.420;10.640;2023-11-22T10:20:42;8.67;;;4.90;;
40150;SDS011;25866;52.420;10.640;2023-11-22T10:23:12;7.10;;;4.40;;
40150;SDS011;25866;52.420;10.640;2023-11-22T10:25:43;7.67;;;4.73;;
40150;SDS011;25866;52.420;10.640;2023-11-22T10:28:11;9.03;;;5.10;;
40150;SDS011;25866;52.420;10.640;2023-11-22T10:30:37;9.00;;;5.40;;
40150;SDS011;25866;52.420;10.640;2023-11-22T10:33:05;8.17;;;4.70;;
40150;SDS011;25866;52.420;10.640;2023-11-22T10:35:31;8.10;;;4.93;;
40150;SDS011;25866;52.420;10.640;2023-11-22T10:38:00;7.63;;;4.80;;
40150;SDS011;25866;52.420;10.640;2023-11-22T10:40:29;8.30;;;5.07;;
40150;SDS011;25866;52.420;10.640;2023-11-22T10:42:55;9.37;;;4.70;;
40150;SDS011;25866;52.420;10.640;2023-11-22T10:45:22;9.10;;;4.87;;
40150;SDS011;25866;52.420;10.640;2023-11-22T10:47:49;7.00;;;4.97;;
40150;SDS011;25866;52.420;10.640;2023-11-22T10:50:20;8.53;;;5.13;;
40150;SDS011;25866;52.420;10.640;2023-11-22T10:52:47;8.00;;;4.93;;
40150;SDS011;25866;52.420;10.640;2023-11-22T10:55:20;7.47;;;4.80;;
40150;SDS011;25866;52.420;10.640;2023-11-22T10:57:47;7.10;;;4.70;;
40150;SDS011;25866;52.420;10.640;2023-11-22T11:00:16;7.83;;;4.60;;
40150;SDS011;25866;52.420;10.640;2023-11-22T11:02:47;7.53;;;4.97;;
40150;SDS011;25866;52.420;10.640;2023-11-22T11:05:20;9.27;;;4.97;;
40150;SDS011;25866;52.420;10.640;2023-11-22T11:08:14;7.70;;;4.97;;
40150;SDS011;25866;52.420;10.640;2023-11-22T11:10:44;8.10;;;4.90;;
40150;SDS011;25866;52.420;10.640;2023-11-22T11:13:10;7.93;;;4.67;;
40150;SDS011;25866;52.420;10.640;2023-11-22T11:15:38;8.13;;;4.53;;
40150;SDS011;25866;52.420;10.640;2023-11-22T11:18:07;7.33;;;4.67;;
40150;SDS011;25866;52.420;10.640;2023-11-22T11:20:56;6.77;;;4.30;;
40150;SDS011;25866;52.420;10.640;2023-11-22T11:23:27;7.00;;;4.30;;
40150;SDS011;25866;52.420;10.640;2023-11-22T11:25:54;6.40;;;4.20;;
40150;SDS011;25866;52.420;10.640;2023-11-22T11:28:22;10.00;;;4.60;;
40150;SDS011;25866;52.420;10.640;2023-11-22T11:30:52;6.10;;;4.10;;
40150;SDS011;25866;52.420;10.640;2023-11-22T11:33:32;5.93;;;4.00;;
40150;SDS011;25866;52.420;10.640;2023-11-22T11:36:00;5.77;;;4.40;;
40150;SDS011;25866;52.420;10.640;2023-11-22T11:38:31;6.87;;;3.87;;
40150;SDS011;25866;52.420;10.640;2023-11-22T11:41:06;7.97;;;4.40;;
40150;SDS011;25866;52.420;10.640;2023-11-22T11:43:42;5.60;;;4.03;;
40150;SDS011;25866;52.420;10.640;2023-11-22T11:46:11;6.63;;;4.27;;
40150;SDS011;25866;52.420;10.640;2023-11-22T11:48:37;6.20;;;3.87;;
40150;SDS011;25866;52.420;10.640;2023-11-22T11:51:07;5.73;;;4.33;;
40150;SDS011;25866;52.420;10.640;2023-11-22T11:53:32;7.23;;;4.40;;
40150;SDS011;25866;52.420;10.640;2023-11-22T11:55:58;7.70;;;4.33;;
40150;SDS011;25866;52.420;10.640;2023-11-22T11:58:24;8.67;;;4.37;;
40150;SDS011;25866;52.420;10.640;2023-11-22T12:00:50;6.83;;;3.93;;
40150;SDS011;25866;52.420;10.640;2023-11-22T12:03:17;6.57;;;4.30;;
40150;SDS011;25866;52.420;10.640;2023-11-22T12:05:46;6.37;;;4.50;;
40150;SDS011;25866;52.420;10.640;2023-11-22T12:08:14;7.63;;;4.00;;
40150;SDS011;25866;52.420;10.640;2023-11-22T12:10:41;6.07;;;4.30;;
40150;SDS011;25866;52.420;10.640;2023-11-22T12:13:07;6.63;;;3.80;;
40150;SDS011;25866;52.420;10.640;2023-11-22T12:15:33;5.47;;;3.50;;
40150;SDS011;25866;52.420;10.640;2023-11-22T12:18:00;6.07;;;3.30;;
40150;SDS011;25866;52.420;10.640;2023-11-22T12:20:26;4.20;;;3.10;;
40150;SDS011;25866;52.420;10.640;2023-11-22T12:22:57;6.00;;;3.30;;
40150;SDS011;25866;52.420;10.640;2023-11-22T12:25:29;6.10;;;3.83;;
40150;SDS011;25866;52.420;10.640;2023-11-22T12:27:55;7.03;;;3.60;;
40150;SDS011;25866;52.420;10.640;2023-11-22T12:30:28;5.63;;;3.50;;
40150;SDS011;25866;52.420;10.640;2023-11-22T12:32:56;7.50;;;3.83;;
40150;SDS011;25866;52.420;10.640;2023-11-22T12:35:25;5.60;;;3.90;;
40150;SDS011;25866;52.420;10.640;2023-11-22T12:37:52;7.77;;;4.30;;
40150;SDS011;25866;52.420;10.640;2023-11-22T12:40:19;6.93;;;3.60;;
40150;SDS011;25866;52.420;10.640;2023-11-22T12:42:49;7.27;;;4.50;;
40150;SDS011;25866;52.420;10.640;2023-11-22T12:45:22;5.97;;;4.03;;
40150;SDS011;25866;52.420;10.640;2023-11-22T12:47:54;7.00;;;4.07;;
40150;SDS011;25866;52.420;10.640;2023-11-22T12:50:33;5.63;;;4.13;;
40150;SDS011;25866;52.420;10.640;2023-11-22T12:53:13;6.10;;;4.47;;
40150;SDS011;25866;52.420;10.640;2023-11-22T12:58:10;7.13;;;4.67;;
40150;SDS011;25866;52.420;10.640;2023-11-22T13:00:37;7.77;;;4.93;;
40150;SDS011;25866;52.420;10.640;2023-11-22T13:03:09;7.47;;;4.40;;
40150;SDS011;25866;52.420;10.640;2023-11-22T13:05:44;7.83;;;5.20;;
40150;SDS011;25866;52.420;10.640;2023-11-22T13:08:11;7.63;;;4.30;;
40150;SDS011;25866;52.420;10.640;2023-11-22T13:10:38;10.20;;;4.70;;
40150;SDS011;25866;52.420;10.640;2023-11-22T13:13:05;7.20;;;4.83;;
40150;SDS011;25866;52.420;10.640;2023-11-22T13:15:33;7.50;;;4.80;;
40150;SDS011;25866;52.420;10.640;2023-11-22T13:18:00;7.00;;;4.80;;
40150;SDS011;25866;52.420;10.640;2023-11-22T13:20:26;6.87;;;5.17;;
40150;SDS011;25866;52.420;10.640;2023-11-22T13:22:53;6.13;;;4.23;;
40150;SDS011;25866;52.420;10.640;2023-11-22T13:25:20;5.50;;;4.20;;
40150;SDS011;25866;52.420;10.640;2023-11-22T13:27:49;7.10;;;4.50;;
40150;SDS011;25866;52.420;10.640;2023-11-22T13:30:17;6.63;;;4.47;;
40150;SDS011;25866;52.420;10.640;2023-11-22T13:32:47;5.83;;;4.10;;
40150;SDS011;25866;52.420;10.640;2023-11-22T13:35:21;7.30;;;4.50;;
40150;SDS011;25866;52.420;10.640;2023-11-22T13:37:48;6.77;;;4.67;;
40150;SDS011;25866;52.420;10.640;2023-11-22T13:40:15;8.33;;;4.33;;
40150;SDS011;25866;52.420;10.640;2023-11-22T13:42:42;7.27;;;4.80;;
40150;SDS011;25866;52.420;10.640;2023-11-22T13:45:14;8.20;;;4.47;;
40150;SDS011;25866;52.420;10.640;2023-11-22T13:47:45;8.63;;;4.23;;
40150;SDS011;25866;52.420;10.640;2023-11-22T13:50:13;8.03;;;4.93;;
40150;SDS011;25866;52.420;10.640;2023-11-22T13:52:44;7.20;;;4.60;;
40150;SDS011;25866;52.420;10.640;2023-11-22T13:55:11;6.77;;;4.57;;
40150;SDS011;25866;52.420;10.640;2023-11-22T13:57:38;6.40;;;4.10;;
40150;SDS011;25866;52.420;10.640;2023-11-22T14:00:07;5.17;;;3.87;;
40150;SDS011;25866;52.420;10.640;2023-11-22T14:02:37;5.43;;;3.77;;
40150;SDS011;25866;52.420;10.640;2023-11-22T14:05:02;8.17;;;3.70;;
40150;SDS011;25866;52.420;10.640;2023-11-22T14:07:33;6.10;;;4.00;;
40150;SDS011;25866;52.420;10.640;2023-11-22T14:10:00;5.30;;;3.83;;
40150;SDS011;25866;52.420;10.640;2023-11-22T14:12:28;4.23;;;2.93;;
40150;SDS011;25866;52.420;10.640;2023-11-22T14:14:58;5.53;;;3.73;;
40150;SDS011;25866;52.420;10.640;2023-11-22T14:17:24;5.27;;;3.37;;
40150;SDS011;25866;52.420;10.640;2023-11-22T14:19:51;5.00;;;3.00;;
40150;SDS011;25866;52.420;10.640;2023-11-22T14:22:20;4.57;;;3.10;;
40150;SDS011;25866;52.420;10.640;2023-11-22T14:24:47;5.03;;;3.80;;
40150;SDS011;25866;52.420;10.640;2023-11-22T14:27:17;7.63;;;3.93;;
40150;SDS011;25866;52.420;10.640;2023-11-22T14:29:44;6.27;;;3.63;;
40150;SDS011;25866;52.420;10.640;2023-11-22T14:32:13;6.37;;;3.97;;
40150;SDS011;25866;52.420;10.640;2023-11-22T14:34:39;5.93;;;4.00;;
40150;SDS011;25866;52.420;10.640;2023-11-22T14:37:07;6.23;;;3.87;;
40150;SDS011;25866;52.420;10.640;2023-11-22T14:39:33;6.70;;;4.50;;